Shelocta, Pennsylvania
Current Conditions -  °F | °C
As of 1:35 AM on Monday 26 Jan 2015 (Local Time) from KIDI Reporting Station
Haze Haze  
Wind Chill: 21°   Ceiling: 300
Heat Index: 30°   Visibility: 1.5mi
Dew Point: 30°   Wind: 12mph
Humidity: 100%   Direction: 100°E
Pressure: 29.78"   Gusts: 18mph
Location:  40.66°N, 79.3°W
Report Text: KIDI 260635Z AUTO 10010G16KT 1 1/2SM BR BKN003 OVC028 M01/M01 A2978 RMK A01
Loading
Personal Weather Stations






























Interactive Weather Map New forecast layout! Learn more

10-Day Weather Forecast

Advertisements
Track Severe Weather on mobile